Time;durP1;ratioP1;P1;durP2;ratioP2;P2;SDS_P1;SDS_P2;PMS_P1;PMS_P2;Temp;Humidity;BMP_temperature;BMP_pressure;BME280_temperature;BME280_humidity;BME280_pressure;Samples;Min_cycle;Max_cycle;Signal;HPM_P1;HPM_P2
2022/06/23 00:01:15;;;;;;;10.45;7.13;;;;;;;;;;5050566;28;20045;-70
2022/06/23 00:03:41;;;;;;;10.93;7.40;;;;;;;;;;5036039;28;20053;-70
2022/06/23 00:06:08;;;;;;;10.70;7.15;;;;;;;;;;5054407;28;20044;-70
2022/06/23 00:08:44;;;;;;;12.80;7.43;;;;;;;;;;5054308;28;20415;-70
2022/06/23 00:11:21;;;;;;;9.20;7.80;;;;;;;;;;5053454;28;20041;-70
2022/06/23 00:13:48;;;;;;;11.00;7.93;;;;;;;;;;5052248;28;20450;-69
2022/06/23 00:16:27;;;;;;;12.18;8.00;;;;;;;;;;5054963;28;20103;-70
2022/06/23 00:18:54;;;;;;;12.05;7.88;;;;;;;;;;5054164;28;20090;-70
2022/06/23 00:21:25;;;;;;;10.32;7.53;;;;;;;;;;5054432;28;20437;-70
2022/06/23 00:23:53;;;;;;;13.45;7.90;;;;;;;;;;5047836;28;20041;-71
2022/06/23 00:26:21;;;;;;;12.27;8.23;;;;;;;;;;5051908;28;20037;-70
2022/06/23 00:28:52;;;;;;;12.05;7.97;;;;;;;;;;5053670;28;20487;-70
2022/06/23 00:31:26;;;;;;;10.48;8.10;;;;;;;;;;5052684;28;20083;-71
2022/06/23 00:33:52;;;;;;;13.23;8.60;;;;;;;;;;5053319;28;20051;-71
2022/06/23 00:36:27;;;;;;;11.48;8.13;;;;;;;;;;5053079;28;20037;-71
2022/06/23 00:38:53;;;;;;;11.07;8.00;;;;;;;;;;5051811;28;20052;-70
2022/06/23 00:41:21;;;;;;;11.38;8.55;;;;;;;;;;5048427;28;20107;-70
2022/06/23 00:43:49;;;;;;;13.05;8.13;;;;;;;;;;5053281;28;20084;-70
2022/06/23 00:46:23;;;;;;;10.48;8.15;;;;;;;;;;5052045;28;20451;-70
2022/06/23 00:48:52;;;;;;;11.95;9.00;;;;;;;;;;5053362;28;20049;-71
2022/06/23 00:51:18;;;;;;;13.82;8.55;;;;;;;;;;5053411;28;20045;-70
2022/06/23 00:53:49;;;;;;;11.52;8.27;;;;;;;;;;5050521;28;20037;-71
2022/06/23 00:56:27;;;;;;;14.73;9.00;;;;;;;;;;5037486;28;20072;-70
2022/06/23 00:58:57;;;;;;;12.57;8.88;;;;;;;;;;5051678;28;20495;-70
2022/06/23 01:01:35;;;;;;;13.30;9.07;;;;;;;;;;5050770;28;20435;-71
2022/06/23 01:04:08;;;;;;;10.82;8.90;;;;;;;;;;5052046;28;20386;-71
2022/06/23 01:06:56;;;;;;;13.43;8.88;;;;;;;;;;5052501;28;20041;-71
2022/06/23 01:09:34;;;;;;;12.05;10.30;;;;;;;;;;5052655;28;20072;-70
2022/06/23 01:12:06;;;;;;;13.95;10.80;;;;;;;;;;5053313;28;20045;-70
2022/06/23 01:14:38;;;;;;;12.90;10.02;;;;;;;;;;5052200;28;20479;-69
2022/06/23 01:17:04;;;;;;;16.38;9.65;;;;;;;;;;5053767;28;20105;-71
2022/06/23 01:19:57;;;;;;;11.43;9.18;;;;;;;;;;5047532;28;20052;-70
2022/06/23 01:22:23;;;;;;;11.63;9.70;;;;;;;;;;5051349;28;20041;-71
2022/06/23 01:24:55;;;;;;;11.57;9.63;;;;;;;;;;5043136;28;20044;-70
2022/06/23 01:27:25;;;;;;;15.93;10.82;;;;;;;;;;5038415;28;20439;-71
2022/06/23 01:29:53;;;;;;;14.32;10.32;;;;;;;;;;5051782;28;20052;-71
2022/06/23 01:32:22;;;;;;;13.75;11.05;;;;;;;;;;5049392;28;20399;-71
2022/06/23 01:34:51;;;;;;;14.65;10.68;;;;;;;;;;5034810;28;20037;-70
2022/06/23 01:37:23;;;;;;;16.52;10.88;;;;;;;;;;5052821;28;20052;-70
2022/06/23 01:39:53;;;;;;;15.90;11.13;;;;;;;;;;5033270;28;20052;-70
2022/06/23 01:42:22;;;;;;;14.30;11.70;;;;;;;;;;5046597;28;20499;-70
2022/06/23 01:44:58;;;;;;;14.70;11.15;;;;;;;;;;5051283;28;20489;-70
2022/06/23 01:47:31;;;;;;;15.82;11.52;;;;;;;;;;5051375;28;20149;-70
2022/06/23 01:50:17;;;;;;;15.57;11.52;;;;;;;;;;5051296;28;20063;-71
2022/06/23 01:52:44;;;;;;;14.80;11.85;;;;;;;;;;5048635;28;20064;-69
2022/06/23 01:55:15;;;;;;;15.40;12.07;;;;;;;;;;5032068;28;20052;-70
2022/06/23 01:57:55;;;;;;;16.60;11.80;;;;;;;;;;5028866;28;20041;-71
2022/06/23 02:00:23;;;;;;;19.23;12.82;;;;;;;;;;5048301;28;20055;-71
2022/06/23 02:02:55;;;;;;;15.93;12.38;;;;;;;;;;5050132;28;20124;-70
2022/06/23 02:05:40;;;;;;;18.70;12.27;;;;;;;;;;5051376;28;20454;-70
2022/06/23 02:08:25;;;;;;;17.30;12.07;;;;;;;;;;5032880;28;20049;-71
2022/06/23 02:10:54;;;;;;;15.50;11.98;;;;;;;;;;5034607;28;20107;-71
2022/06/23 02:13:35;;;;;;;17.67;12.27;;;;;;;;;;5052354;28;20128;-70
2022/06/23 02:16:13;;;;;;;15.07;11.65;;;;;;;;;;5051548;28;20056;-70
2022/06/23 02:18:49;;;;;;;16.10;12.20;;;;;;;;;;5049340;28;20041;-70
2022/06/23 02:21:35;;;;;;;17.88;12.45;;;;;;;;;;5050733;28;20040;-69
2022/06/23 02:24:24;;;;;;;18.80;13.00;;;;;;;;;;5052540;28;20495;-70
2022/06/23 02:27:00;;;;;;;18.02;12.57;;;;;;;;;;5035612;28;20076;-70
2022/06/23 02:29:29;;;;;;;19.25;12.20;;;;;;;;;;5052524;28;20491;-70
2022/06/23 02:32:02;;;;;;;16.83;12.95;;;;;;;;;;5048531;28;20082;-70
2022/06/23 02:34:31;;;;;;;17.15;13.38;;;;;;;;;;5052832;28;20045;-70
2022/06/23 02:36:57;;;;;;;18.10;13.35;;;;;;;;;;5050403;28;20045;-69
2022/06/23 02:39:46;;;;;;;17.15;13.05;;;;;;;;;;5051173;28;20503;-70
2022/06/23 02:42:21;;;;;;;17.95;12.98;;;;;;;;;;5041305;28;20120;-70
2022/06/23 02:44:53;;;;;;;17.98;13.05;;;;;;;;;;5050170;28;20053;-70
2022/06/23 02:47:35;;;;;;;16.23;13.45;;;;;;;;;;5051107;28;20434;-70
2022/06/23 02:50:08;;;;;;;17.67;12.63;;;;;;;;;;5050796;28;20048;-70
2022/06/23 02:52:52;;;;;;;15.15;12.48;;;;;;;;;;5051582;28;20072;-70
2022/06/23 02:55:36;;;;;;;17.90;12.98;;;;;;;;;;5050035;28;20076;-69
2022/06/23 02:58:06;;;;;;;19.33;13.13;;;;;;;;;;5033829;28;20045;-70
2022/06/23 03:00:34;;;;;;;19.17;13.43;;;;;;;;;;5044301;28;20041;-71
2022/06/23 03:03:14;;;;;;;18.20;13.18;;;;;;;;;;5040599;28;20037;-71
2022/06/23 03:05:56;;;;;;;17.90;13.13;;;;;;;;;;5031870;28;20239;-71
2022/06/23 03:08:42;;;;;;;17.50;14.00;;;;;;;;;;5043943;28;20037;-70
2022/06/23 03:11:14;;;;;;;21.33;13.95;;;;;;;;;;5052212;28;20045;-70
2022/06/23 03:13:52;;;;;;;17.23;13.18;;;;;;;;;;5051286;28;20044;-70
2022/06/23 03:16:44;;;;;;;16.73;13.40;;;;;;;;;;5047874;28;20482;-70
2022/06/23 03:19:14;;;;;;;17.73;13.48;;;;;;;;;;5015505;28;20462;-70
2022/06/23 03:21:43;;;;;;;16.77;13.13;;;;;;;;;;5035739;28;20502;-70
2022/06/23 03:24:13;;;;;;;18.48;13.18;;;;;;;;;;5041329;28;20384;-70
2022/06/23 03:26:39;;;;;;;15.98;12.52;;;;;;;;;;5053232;28;20039;-71
2022/06/23 03:29:15;;;;;;;22.40;13.77;;;;;;;;;;5053690;28;20053;-71
2022/06/23 03:32:04;;;;;;;15.68;13.00;;;;;;;;;;5053029;28;20119;-71
2022/06/23 03:34:33;;;;;;;16.65;12.60;;;;;;;;;;5041682;28;20095;-70
2022/06/23 03:37:02;;;;;;;18.88;13.20;;;;;;;;;;5053294;28;20132;-69
2022/06/23 03:42:18;;;;;;;17.65;13.07;;;;;;;;;;5054320;28;20061;-70
2022/06/23 03:44:44;;;;;;;14.60;12.68;;;;;;;;;;5055504;28;20048;-70
2022/06/23 03:47:13;;;;;;;15.98;13.32;;;;;;;;;;5036392;28;20041;-70
2022/06/23 03:49:44;;;;;;;16.88;13.15;;;;;;;;;;5032338;28;20175;-72
2022/06/23 03:52:34;;;;;;;14.93;12.55;;;;;;;;;;5041715;28;20045;-70
2022/06/23 03:55:01;;;;;;;17.17;13.05;;;;;;;;;;5040194;28;20045;-71
2022/06/23 03:57:32;;;;;;;15.88;12.02;;;;;;;;;;5035327;28;20038;-69
2022/06/23 04:00:11;;;;;;;15.30;12.68;;;;;;;;;;5028838;28;20053;-70
2022/06/23 04:02:42;;;;;;;16.33;12.43;;;;;;;;;;5051110;28;20052;-69
2022/06/23 04:05:17;;;;;;;16.15;12.30;;;;;;;;;;5055013;28;20060;-70
2022/06/23 04:07:46;;;;;;;15.93;11.98;;;;;;;;;;5053782;28;20091;-70
2022/06/23 04:10:15;;;;;;;15.23;12.20;;;;;;;;;;5054744;28;20049;-71
2022/06/23 04:12:46;;;;;;;16.65;12.80;;;;;;;;;;5051301;28;20095;-70
2022/06/23 04:15:24;;;;;;;17.70;13.18;;;;;;;;;;5054327;28;20060;-70
2022/06/23 04:17:53;;;;;;;14.13;12.02;;;;;;;;;;5053598;28;20047;-70
2022/06/23 04:20:21;;;;;;;13.27;10.73;;;;;;;;;;5053912;28;20099;-69
2022/06/23 04:23:00;;;;;;;14.23;10.63;;;;;;;;;;5054627;28;20048;-70
2022/06/23 04:25:40;;;;;;;12.52;10.25;;;;;;;;;;5052965;28;20049;-70
2022/06/23 04:28:06;;;;;;;12.15;9.52;;;;;;;;;;5052650;28;20047;-71
2022/06/23 04:30:34;;;;;;;11.00;9.85;;;;;;;;;;5051814;28;20041;-71
2022/06/23 04:33:03;;;;;;;11.32;9.27;;;;;;;;;;5033429;28;20056;-71
2022/06/23 04:35:32;;;;;;;12.40;9.18;;;;;;;;;;5036524;28;20120;-71
2022/06/23 04:38:05;;;;;;;13.68;9.75;;;;;;;;;;5053256;28;20053;-70
2022/06/23 04:40:34;;;;;;;11.68;9.50;;;;;;;;;;5053684;28;20047;-71
2022/06/23 04:43:13;;;;;;;10.80;9.48;;;;;;;;;;5052192;28;20092;-71
2022/06/23 04:45:59;;;;;;;11.68;9.68;;;;;;;;;;5054092;28;20067;-71
2022/06/23 04:48:28;;;;;;;11.73;10.07;;;;;;;;;;5047929;28;20049;-71
2022/06/23 04:50:57;;;;;;;13.02;10.90;;;;;;;;;;5053550;28;20082;-70
2022/06/23 04:53:29;;;;;;;12.30;10.52;;;;;;;;;;5052159;28;20086;-70
2022/06/23 04:56:01;;;;;;;11.57;10.38;;;;;;;;;;5053745;28;20052;-71
2022/06/23 04:58:28;;;;;;;12.98;10.77;;;;;;;;;;5047676;28;20069;-71
2022/06/23 05:00:55;;;;;;;15.25;10.93;;;;;;;;;;5052046;28;20410;-71
2022/06/23 05:03:30;;;;;;;13.90;11.60;;;;;;;;;;5035113;28;20503;-70
2022/06/23 05:06:05;;;;;;;13.27;11.82;;;;;;;;;;5053530;28;20072;-71
2022/06/23 05:08:33;;;;;;;14.35;11.80;;;;;;;;;;5033894;28;20045;-70
2022/06/23 05:11:05;;;;;;;13.82;12.20;;;;;;;;;;5052694;28;20041;-70
2022/06/23 05:13:38;;;;;;;15.40;12.18;;;;;;;;;;5053630;28;20060;-70
2022/06/23 05:16:27;;;;;;;13.43;11.93;;;;;;;;;;5052583;28;20491;-70
2022/06/23 05:18:55;;;;;;;14.35;12.65;;;;;;;;;;5025644;28;20423;-71
2022/06/23 05:21:24;;;;;;;14.23;11.63;;;;;;;;;;5052874;28;20056;-70
2022/06/23 05:23:53;;;;;;;14.52;11.35;;;;;;;;;;5052473;28;20045;-70
2022/06/23 05:26:25;;;;;;;13.45;11.48;;;;;;;;;;5053209;28;20047;-70
2022/06/23 05:28:54;;;;;;;13.10;11.48;;;;;;;;;;5045529;28;20096;-70
2022/06/23 05:31:23;;;;;;;13.18;11.25;;;;;;;;;;5049690;28;20567;-70
2022/06/23 05:33:51;;;;;;;12.68;10.77;;;;;;;;;;5051552;28;20555;-69
2022/06/23 05:36:28;;;;;;;11.70;10.35;;;;;;;;;;5052661;28;20592;-70
2022/06/23 05:38:56;;;;;;;13.18;10.20;;;;;;;;;;5051347;28;20056;-70
2022/06/23 05:41:42;;;;;;;12.43;9.27;;;;;;;;;;5052953;28;20053;-71
2022/06/23 05:44:20;;;;;;;11.05;9.23;;;;;;;;;;5051425;28;20037;-70
2022/06/23 05:46:47;;;;;;;9.95;8.48;;;;;;;;;;5033122;28;20041;-70
2022/06/23 05:49:16;;;;;;;11.45;9.13;;;;;;;;;;5022811;28;20080;-70
2022/06/23 05:51:51;;;;;;;11.63;8.93;;;;;;;;;;5037796;28;20124;-70
2022/06/23 05:54:37;;;;;;;10.52;8.68;;;;;;;;;;5051021;28;20045;-71
2022/06/23 05:57:16;;;;;;;10.55;8.00;;;;;;;;;;5053096;28;20052;-71
2022/06/23 05:59:48;;;;;;;9.60;7.53;;;;;;;;;;5051070;28;20061;-70
2022/06/23 06:02:18;;;;;;;8.48;7.57;;;;;;;;;;5051481;28;20403;-70
2022/06/23 06:04:46;;;;;;;10.37;7.63;;;;;;;;;;5045877;28;20036;-71
2022/06/23 06:07:15;;;;;;;11.95;7.90;;;;;;;;;;5051326;28;20072;-71
2022/06/23 06:09:41;;;;;;;11.77;8.30;;;;;;;;;;5050148;28;20040;-71
2022/06/23 06:12:14;;;;;;;11.75;8.27;;;;;;;;;;5050536;28;20045;-70
2022/06/23 06:14:43;;;;;;;9.25;7.80;;;;;;;;;;5052131;28;20084;-71
2022/06/23 06:17:11;;;;;;;11.68;7.97;;;;;;;;;;5052743;28;20057;-71
2022/06/23 06:19:38;;;;;;;11.75;7.90;;;;;;;;;;5051825;28;20045;-71
2022/06/23 06:22:19;;;;;;;12.18;8.10;;;;;;;;;;5052734;28;20115;-69
2022/06/23 06:24:45;;;;;;;;;;;;;;;;;;5035362;28;20106;-70
2022/06/23 06:27:12;;;;;;;10.23;7.15;;;;;;;;;;5051442;28;20003;-70
2022/06/23 06:29:40;;;;;;;9.23;7.25;;;;;;;;;;5050128;28;20547;-70
2022/06/23 06:32:09;;;;;;;11.27;6.97;;;;;;;;;;5051140;28;20053;-70
2022/06/23 06:34:40;;;;;;;10.88;6.65;;;;;;;;;;5051927;28;20045;-69
2022/06/23 06:37:11;;;;;;;11.35;6.38;;;;;;;;;;5052339;28;20063;-70
2022/06/23 06:39:39;;;;;;;8.63;7.00;;;;;;;;;;5050983;28;20124;-71
2022/06/23 06:42:07;;;;;;;9.82;6.40;;;;;;;;;;5050378;28;20053;-70
2022/06/23 06:44:34;;;;;;;10.45;6.72;;;;;;;;;;5052451;28;20084;-70
2022/06/23 06:47:00;;;;;;;10.13;6.93;;;;;;;;;;5050602;28;20084;-70
2022/06/23 06:49:28;;;;;;;10.32;5.93;;;;;;;;;;5052157;28;20103;-70
2022/06/23 06:51:55;;;;;;;10.68;6.20;;;;;;;;;;5052417;28;20470;-70
2022/06/23 06:54:27;;;;;;;9.23;5.95;;;;;;;;;;5052567;28;20091;-70
2022/06/23 06:56:55;;;;;;;8.93;6.07;;;;;;;;;;5056061;28;20052;-71
2022/06/23 06:59:24;;;;;;;8.80;5.85;;;;;;;;;;5056167;28;20053;-71
2022/06/23 07:01:55;;;;;;;9.63;5.68;;;;;;;;;;5056072;28;20045;-72
2022/06/23 07:04:24;;;;;;;8.50;5.80;;;;;;;;;;5055280;28;20128;-72
2022/06/23 07:06:55;;;;;;;10.70;5.57;;;;;;;;;;5054964;28;20441;-71
2022/06/23 07:09:24;;;;;;;8.18;5.70;;;;;;;;;;5056259;28;20045;-72
2022/06/23 07:11:59;;;;;;;9.60;5.53;;;;;;;;;;5055712;28;20056;-72
2022/06/23 07:14:31;;;;;;;9.00;5.13;;;;;;;;;;5055532;28;20380;-72
2022/06/23 07:17:00;;;;;;;8.30;5.05;;;;;;;;;;5037618;28;20049;-71
2022/06/23 07:19:39;;;;;;;9.18;5.00;;;;;;;;;;5049999;28;20077;-70
2022/06/23 07:22:05;;;;;;;10.43;5.07;;;;;;;;;;5045931;28;20042;-71
2022/06/23 07:24:34;;;;;;;8.55;5.53;;;;;;;;;;5047217;28;20045;-71
2022/06/23 07:27:03;;;;;;;9.40;5.43;;;;;;;;;;5046039;28;20071;-71
2022/06/23 07:29:29;;;;;;;8.68;5.10;;;;;;;;;;5049700;28;20514;-71
2022/06/23 07:32:04;;;;;;;9.98;5.65;;;;;;;;;;5048094;28;20414;-71
2022/06/23 07:34:36;;;;;;;8.48;5.10;;;;;;;;;;5049249;28;20128;-71
2022/06/23 07:37:07;;;;;;;11.70;5.38;;;;;;;;;;5055536;28;20041;-71
2022/06/23 07:39:36;;;;;;;9.63;4.88;;;;;;;;;;5055027;28;20060;-69
2022/06/23 07:42:06;;;;;;;8.85;4.80;;;;;;;;;;5053249;28;20103;-69
2022/06/23 07:44:38;;;;;;;7.07;4.53;;;;;;;;;;5055421;28;20053;-70
2022/06/23 07:47:04;;;;;;;8.20;4.65;;;;;;;;;;5052282;28;20403;-70
2022/06/23 07:49:33;;;;;;;9.60;4.32;;;;;;;;;;5053016;28;20052;-71
2022/06/23 07:52:01;;;;;;;9.15;4.28;;;;;;;;;;5054621;28;20041;-71
2022/06/23 07:54:27;;;;;;;8.43;5.00;;;;;;;;;;5043326;28;20048;-71
2022/06/23 07:56:54;;;;;;;9.30;4.80;;;;;;;;;;5034450;28;20076;-71
2022/06/23 07:59:24;;;;;;;7.80;4.38;;;;;;;;;;5053804;28;20144;-71
2022/06/23 08:01:55;;;;;;;9.98;5.05;;;;;;;;;;5052832;28;20079;-70
2022/06/23 08:04:24;;;;;;;11.02;4.53;;;;;;;;;;5053809;28;20033;-70
2022/06/23 08:06:50;;;;;;;6.88;4.10;;;;;;;;;;5056699;28;20079;-71
2022/06/23 08:09:16;;;;;;;8.30;4.57;;;;;;;;;;5053702;28;20037;-71
2022/06/23 08:14:35;;;;;;;11.50;4.93;;;;;;;;;;5051378;28;20045;-71
2022/06/23 08:17:04;;;;;;;8.55;4.07;;;;;;;;;;5069164;28;20469;-71
2022/06/23 08:19:33;;;;;;;9.75;4.60;;;;;;;;;;5072562;28;20062;-69
2022/06/23 08:22:01;;;;;;;10.10;4.00;;;;;;;;;;5064596;28;20041;-71
2022/06/23 08:24:28;;;;;;;8.25;3.75;;;;;;;;;;5053468;28;20043;-70
2022/06/23 08:27:20;;;;;;;7.80;4.30;;;;;;;;;;5053369;28;20049;-70
2022/06/23 08:29:52;;;;;;;8.32;4.05;;;;;;;;;;5042620;28;20124;-70
2022/06/23 08:32:19;;;;;;;10.15;4.30;;;;;;;;;;5067840;28;20139;-70
2022/06/23 08:34:49;;;;;;;7.40;4.40;;;;;;;;;;5067337;28;21032;-70
2022/06/23 08:37:18;;;;;;;8.00;3.95;;;;;;;;;;5053204;28;20155;-71
2022/06/23 08:39:56;;;;;;;7.70;3.80;;;;;;;;;;5039435;28;20044;-69
2022/06/23 08:42:29;;;;;;;5.90;3.53;;;;;;;;;;5055664;28;20052;-70
2022/06/23 08:45:14;;;;;;;8.20;3.78;;;;;;;;;;5065438;28;20037;-71
2022/06/23 08:47:45;;;;;;;6.57;3.85;;;;;;;;;;5066124;28;20045;-70
2022/06/23 08:50:14;;;;;;;7.47;3.72;;;;;;;;;;5053746;28;20044;-69
2022/06/23 08:53:00;;;;;;;9.15;4.13;;;;;;;;;;5035822;28;20497;-70
2022/06/23 08:55:30;;;;;;;8.07;3.70;;;;;;;;;;5039795;28;20098;-70
2022/06/23 08:57:56;;;;;;;9.10;4.00;;;;;;;;;;5035195;28;20507;-70
2022/06/23 09:00:49;;;;;;;7.15;3.40;;;;;;;;;;5036203;28;20087;-70
2022/06/23 09:03:19;;;;;;;9.68;3.38;;;;;;;;;;5047808;28;20124;-70
2022/06/23 09:05:51;;;;;;;7.95;3.55;;;;;;;;;;5050940;28;20060;-71
2022/06/23 09:08:25;;;;;;;9.38;3.28;;;;;;;;;;5066384;28;20044;-71
2022/06/23 09:10:54;;;;;;;7.20;3.00;;;;;;;;;;5050402;28;20059;-68
2022/06/23 09:13:49;;;;;;;6.43;3.05;;;;;;;;;;5051206;28;20049;-70
2022/06/23 09:16:41;;;;;;;8.95;3.17;;;;;;;;;;5034781;28;20135;-71
2022/06/23 09:19:21;;;;;;;9.40;3.08;;;;;;;;;;5018945;28;20507;-70
2022/06/23 09:21:47;;;;;;;8.03;2.80;;;;;;;;;;5073439;28;20052;-70
2022/06/23 09:24:13;;;;;;;6.28;3.00;;;;;;;;;;5066152;28;20033;-70
2022/06/23 09:26:39;;;;;;;8.43;2.80;;;;;;;;;;5054253;28;20040;-70
2022/06/23 09:29:12;;;;;;;7.30;2.80;;;;;;;;;;5027156;28;20045;-70
2022/06/23 09:31:47;;;;;;;7.72;2.78;;;;;;;;;;5070123;28;20128;-70
2022/06/23 09:34:15;;;;;;;5.28;2.30;;;;;;;;;;5055101;28;20395;-70
2022/06/23 09:36:52;;;;;;;8.20;3.03;;;;;;;;;;5056551;28;20113;-70
2022/06/23 09:39:24;;;;;;;6.63;2.72;;;;;;;;;;5062022;28;20410;-70
2022/06/23 09:42:09;;;;;;;6.53;2.50;;;;;;;;;;5036023;28;20132;-70
2022/06/23 09:44:43;;;;;;;7.70;2.67;;;;;;;;;;5061640;28;20064;-70
2022/06/23 09:47:30;;;;;;;8.10;3.20;;;;;;;;;;5062999;28;20051;-70
2022/06/23 09:50:05;;;;;;;7.60;3.00;;;;;;;;;;5043978;28;20055;-69
2022/06/23 09:52:31;;;;;;;7.90;2.25;;;;;;;;;;5049924;28;20052;-70
2022/06/23 09:55:09;;;;;;;7.28;2.28;;;;;;;;;;5049988;28;20127;-69
2022/06/23 09:57:59;;;;;;;8.82;2.30;;;;;;;;;;5043584;28;20122;-69
2022/06/23 10:00:59;;;;;;;6.65;2.33;;;;;;;;;;5040521;28;20509;-70
2022/06/23 10:03:27;;;;;;;8.02;2.13;;;;;;;;;;4989426;28;20042;-70
2022/06/23 10:05:59;;;;;;;9.55;2.50;;;;;;;;;;4976155;28;20619;-70
2022/06/23 10:08:30;;;;;;;11.43;2.47;;;;;;;;;;4973094;28;20090;-70
2022/06/23 10:10:56;;;;;;;;;;;;;;;;;;4969916;28;20142;-69
2022/06/23 10:13:40;;;;;;;6.22;2.20;;;;;;;;;;4989356;28;20005;-70
2022/06/23 10:16:06;;;;;;;5.70;2.08;;;;;;;;;;4978815;28;20101;-70
2022/06/23 10:18:41;;;;;;;8.80;2.40;;;;;;;;;;4973364;28;20142;-70
2022/06/23 10:21:26;;;;;;;7.07;2.40;;;;;;;;;;4971123;28;20131;-69
2022/06/23 10:24:07;;;;;;;8.50;2.08;;;;;;;;;;4968820;28;20548;-71
2022/06/23 10:26:52;;;;;;;6.72;2.20;;;;;;;;;;4980706;28;20102;-70
2022/06/23 10:29:37;;;;;;;7.47;2.10;;;;;;;;;;4984222;28;20057;-70
2022/06/23 10:32:03;;;;;;;12.88;3.00;;;;;;;;;;4984495;28;20047;-69
2022/06/23 10:34:29;;;;;;;10.00;2.03;;;;;;;;;;4985327;28;20042;-69
2022/06/23 10:36:57;;;;;;;6.80;2.13;;;;;;;;;;4968768;28;20051;-69
2022/06/23 10:39:35;;;;;;;5.50;1.95;;;;;;;;;;5022946;28;20572;-70
2022/06/23 10:42:23;;;;;;;6.53;2.10;;;;;;;;;;5033543;28;20053;-71
2022/06/23 10:44:59;;;;;;;5.40;1.92;;;;;;;;;;5058925;28;20411;-71
2022/06/23 10:47:37;;;;;;;7.22;2.08;;;;;;;;;;5033860;28;20048;-69
2022/06/23 10:50:09;;;;;;;7.32;2.17;;;;;;;;;;5055661;28;20049;-71
2022/06/23 10:52:53;;;;;;;7.68;2.20;;;;;;;;;;5053683;28;20076;-70
2022/06/23 10:55:19;;;;;;;5.85;2.00;;;;;;;;;;5065737;28;20040;-74
2022/06/23 10:58:04;;;;;;;7.53;2.10;;;;;;;;;;5063322;28;20401;-69
2022/06/23 11:00:44;;;;;;;8.02;2.10;;;;;;;;;;5056074;28;20087;-71
2022/06/23 11:03:37;;;;;;;4.13;1.70;;;;;;;;;;5071825;28;20044;-71
2022/06/23 11:06:09;;;;;;;5.18;1.88;;;;;;;;;;5058828;28;20036;-69
2022/06/23 11:08:55;;;;;;;6.88;2.10;;;;;;;;;;5048391;28;20045;-71
2022/06/23 11:11:28;;;;;;;8.00;2.00;;;;;;;;;;5028825;28;20057;-69
2022/06/23 11:14:09;;;;;;;7.40;2.00;;;;;;;;;;5051819;28;20049;-70
2022/06/23 11:16:54;;;;;;;7.70;2.17;;;;;;;;;;5050543;28;20041;-70
2022/06/23 11:19:20;;;;;;;6.35;1.90;;;;;;;;;;5048079;28;20091;-70
2022/06/23 11:22:04;;;;;;;9.45;1.90;;;;;;;;;;5044910;28;20041;-69
2022/06/23 11:24:35;;;;;;;7.50;1.98;;;;;;;;;;5046163;28;20407;-69
2022/06/23 11:27:01;;;;;;;;;;;;;;;;;;5034579;28;20052;-69
2022/06/23 11:29:35;;;;;;;6.43;2.35;;;;;;;;;;5050967;28;20017;-70
2022/06/23 11:32:13;;;;;;;7.55;2.25;;;;;;;;;;5046598;28;20041;-70
2022/06/23 11:34:58;;;;;;;5.65;2.00;;;;;;;;;;5050946;28;20558;-69
2022/06/23 11:37:24;;;;;;;4.25;1.90;;;;;;;;;;5052630;28;20420;-70
2022/06/23 11:40:09;;;;;;;6.57;2.03;;;;;;;;;;5055547;28;20048;-70
2022/06/23 11:42:44;;;;;;;7.88;2.13;;;;;;;;;;5055311;28;20053;-70
2022/06/23 11:45:10;;;;;;;7.88;2.15;;;;;;;;;;5063633;28;20403;-70
2022/06/23 11:47:36;;;;;;;8.50;2.05;;;;;;;;;;5056959;28;20037;-69
2022/06/23 11:50:07;;;;;;;7.00;1.80;;;;;;;;;;5042692;28;20045;-70
2022/06/23 11:52:36;;;;;;;7.28;2.00;;;;;;;;;;5070475;28;20142;-69
2022/06/23 11:55:25;;;;;;;5.70;1.80;;;;;;;;;;5043666;28;20045;-69
2022/06/23 11:57:57;;;;;;;7.10;1.98;;;;;;;;;;5050284;28;20088;-70
2022/06/23 12:00:27;;;;;;;6.53;1.80;;;;;;;;;;5068962;28;20045;-70
2022/06/23 12:03:12;;;;;;;5.65;1.70;;;;;;;;;;5054283;28;20037;-70
2022/06/23 12:05:44;;;;;;;6.32;1.85;;;;;;;;;;5054261;28;20407;-68
2022/06/23 12:08:27;;;;;;;6.70;2.05;;;;;;;;;;5051859;28;20045;-69
2022/06/23 12:10:54;;;;;;;4.25;1.70;;;;;;;;;;5037791;28;20063;-70
2022/06/23 12:13:22;;;;;;;5.80;1.77;;;;;;;;;;5045716;28;20058;-70
2022/06/23 12:15:49;;;;;;;5.97;1.88;;;;;;;;;;5048151;28;20147;-70
2022/06/23 12:18:17;;;;;;;5.40;2.05;;;;;;;;;;5062276;28;20041;-70
2022/06/23 12:20:46;;;;;;;6.70;2.00;;;;;;;;;;5066523;28;20498;-68
2022/06/23 12:23:25;;;;;;;6.60;1.92;;;;;;;;;;5040318;28;20052;-70
2022/06/23 12:26:02;;;;;;;4.93;1.80;;;;;;;;;;5035033;28;20110;-70
2022/06/23 12:28:34;;;;;;;7.70;1.95;;;;;;;;;;5035315;28;20094;-70
2022/06/23 12:31:04;;;;;;;5.07;1.85;;;;;;;;;;5070739;28;20499;-69
2022/06/23 12:33:57;;;;;;;5.97;1.80;;;;;;;;;;5070271;28;20053;-69
2022/06/23 12:36:31;;;;;;;7.93;1.80;;;;;;;;;;5015696;28;20056;-69
2022/06/23 12:38:59;;;;;;;4.93;2.00;;;;;;;;;;5074406;28;20047;-69
2022/06/23 12:41:41;;;;;;;5.93;2.00;;;;;;;;;;5068308;28;20056;-69
2022/06/23 12:44:14;;;;;;;7.20;2.10;;;;;;;;;;5039203;28;20402;-69
2022/06/23 12:46:59;;;;;;;4.88;2.00;;;;;;;;;;5068376;28;20041;-70
2022/06/23 12:49:34;;;;;;;5.00;1.85;;;;;;;;;;5063252;28;20446;-69
2022/06/23 12:52:00;;;;;;;5.35;2.00;;;;;;;;;;5046803;28;20048;-70
2022/06/23 12:54:47;;;;;;;6.35;2.00;;;;;;;;;;5068228;28;20082;-69
2022/06/23 12:57:26;;;;;;;7.15;1.95;;;;;;;;;;5065682;28;20051;-70
2022/06/23 12:59:52;;;;;;;5.03;1.58;;;;;;;;;;5017954;28;20045;-70
2022/06/23 13:02:19;;;;;;;6.82;1.80;;;;;;;;;;5068144;28;20048;-70
2022/06/23 13:04:48;;;;;;;6.47;1.85;;;;;;;;;;5053487;28;20048;-70
2022/06/23 13:07:28;;;;;;;7.03;2.28;;;;;;;;;;5051434;28;20521;-70
2022/06/23 13:09:57;;;;;;;5.53;2.00;;;;;;;;;;5069599;28;20054;-70
2022/06/23 13:12:29;;;;;;;4.10;1.95;;;;;;;;;;5054336;28;20444;-70
2022/06/23 13:14:57;;;;;;;4.13;1.90;;;;;;;;;;5058167;28;20048;-70
2022/06/23 13:17:32;;;;;;;5.60;2.38;;;;;;;;;;5047492;28;20113;-70
2022/06/23 13:20:01;;;;;;;4.68;1.90;;;;;;;;;;5050924;28;20491;-70
2022/06/23 13:22:27;;;;;;;6.72;1.80;;;;;;;;;;5051694;28;20799;-70
2022/06/23 13:24:55;;;;;;;8.35;2.10;;;;;;;;;;5053139;28;20496;-70
2022/06/23 13:27:23;;;;;;;5.88;1.83;;;;;;;;;;5065695;28;20048;-69
2022/06/23 13:29:49;;;;;;;5.55;2.00;;;;;;;;;;5053970;28;20373;-70
2022/06/23 13:32:22;;;;;;;5.03;1.90;;;;;;;;;;5051996;28;20044;-70
2022/06/23 13:34:58;;;;;;;6.75;2.00;;;;;;;;;;5050354;28;20072;-68
2022/06/23 13:37:29;;;;;;;7.95;2.00;;;;;;;;;;5053117;28;20498;-69
2022/06/23 13:40:01;;;;;;;5.20;2.10;;;;;;;;;;5053026;28;20049;-70
2022/06/23 13:42:38;;;;;;;5.57;2.35;;;;;;;;;;5052851;28;20388;-70
2022/06/23 13:45:07;;;;;;;6.85;2.10;;;;;;;;;;5053075;28;20045;-71
2022/06/23 13:47:36;;;;;;;4.93;2.10;;;;;;;;;;5046701;28;20056;-70
2022/06/23 13:50:18;;;;;;;5.35;1.83;;;;;;;;;;5041345;28;20080;-70
2022/06/23 13:52:47;;;;;;;12.45;2.92;;;;;;;;;;5052013;28;20499;-70
2022/06/23 13:55:29;;;;;;;5.82;2.20;;;;;;;;;;5050661;28;20495;-70
2022/06/23 13:57:59;;;;;;;5.20;1.92;;;;;;;;;;5044723;28;20044;-69
2022/06/23 14:00:33;;;;;;;7.00;2.00;;;;;;;;;;5044512;28;20037;-69
2022/06/23 14:03:04;;;;;;;5.85;2.13;;;;;;;;;;5040489;28;20041;-70
2022/06/23 14:05:39;;;;;;;6.28;2.10;;;;;;;;;;5043952;28;20134;-69
2022/06/23 14:08:05;;;;;;;7.68;2.08;;;;;;;;;;5041132;28;20041;-69
2022/06/23 14:10:42;;;;;;;8.00;2.30;;;;;;;;;;5039499;28;20033;-70
2022/06/23 14:13:15;;;;;;;6.97;2.35;;;;;;;;;;5025160;28;20056;-71
2022/06/23 14:15:43;;;;;;;4.97;2.00;;;;;;;;;;5042383;28;20036;-71
2022/06/23 14:18:19;;;;;;;5.18;1.90;;;;;;;;;;5044186;28;20180;-69
2022/06/23 14:20:57;;;;;;;6.78;2.15;;;;;;;;;;5042701;28;20053;-71
2022/06/23 14:23:27;;;;;;;9.13;2.00;;;;;;;;;;5043735;28;20044;-69
2022/06/23 14:26:08;;;;;;;5.75;1.92;;;;;;;;;;5040710;28;20566;-70
2022/06/23 14:28:56;;;;;;;6.63;2.42;;;;;;;;;;5022684;28;20045;-70
2022/06/23 14:31:29;;;;;;;6.40;2.00;;;;;;;;;;5043151;28;20037;-70
2022/06/23 14:34:11;;;;;;;6.82;2.20;;;;;;;;;;5043736;28;20045;-70
2022/06/23 14:36:42;;;;;;;5.88;2.00;;;;;;;;;;5043175;28;20040;-70
2022/06/23 14:39:08;;;;;;;;;;;;;;;;;;5044962;28;20044;-70
2022/06/23 14:41:40;;;;;;;5.80;2.20;;;;;;;;;;5042344;28;19991;-69
2022/06/23 14:44:13;;;;;;;7.88;2.00;;;;;;;;;;5043336;28;20102;-69
2022/06/23 14:46:49;;;;;;;10.82;2.40;;;;;;;;;;5032297;28;20045;-69
2022/06/23 14:49:36;;;;;;;6.47;1.98;;;;;;;;;;5032744;28;20045;-70
2022/06/23 14:52:09;;;;;;;5.60;2.00;;;;;;;;;;5012592;28;20115;-71
2022/06/23 14:54:39;;;;;;;7.07;2.05;;;;;;;;;;5048141;28;20480;-71
2022/06/23 14:57:11;;;;;;;6.90;2.05;;;;;;;;;;5048517;28;20048;-70
2022/06/23 14:59:43;;;;;;;9.77;2.15;;;;;;;;;;5048692;28;20071;-70
2022/06/23 15:02:15;;;;;;;6.35;2.10;;;;;;;;;;5051343;28;20048;-71
2022/06/23 15:04:47;;;;;;;6.18;2.15;;;;;;;;;;5047467;28;20041;-70
2022/06/23 15:07:32;;;;;;;5.22;2.10;;;;;;;;;;5049831;28;20044;-70
2022/06/23 15:10:01;;;;;;;6.15;2.22;;;;;;;;;;5032094;28;20049;-70
2022/06/23 15:12:47;;;;;;;5.97;1.98;;;;;;;;;;5051255;28;20076;-70
2022/06/23 15:15:28;;;;;;;6.95;2.40;;;;;;;;;;5051427;28;20094;-70
2022/06/23 15:17:54;;;;;;;5.28;2.53;;;;;;;;;;5054217;28;20068;-70